createdAt,value
2023-01-19T00:01:32.462Z,113
2023-01-19T00:04:32.455Z,122
2023-01-19T00:06:32.542Z,92
2023-01-19T00:09:32.449Z,106
2023-01-19T00:12:32.460Z,104
2023-01-19T00:14:32.476Z,153
2023-01-19T00:16:32.689Z,137
2023-01-19T00:22:32.727Z,99
2023-01-19T00:25:32.445Z,110
2023-01-19T00:27:32.478Z,100
2023-01-19T00:29:32.566Z,101
2023-01-19T00:32:32.478Z,121
2023-01-19T00:35:32.469Z,86
2023-01-19T00:38:32.465Z,115
2023-01-19T00:40:32.481Z,89
2023-01-19T00:43:32.463Z,98
2023-01-19T00:45:32.538Z,115
2023-01-19T00:48:32.477Z,139
2023-01-19T00:50:32.480Z,111
2023-01-19T00:52:32.510Z,87
2023-01-19T00:55:32.465Z,84
2023-01-19T00:58:32.453Z,90
2023-01-19T01:01:45.683Z,128
2023-01-19T01:03:32.446Z,94
2023-01-19T01:06:32.453Z,114
2023-01-19T01:08:32.434Z,83
2023-01-19T01:11:32.446Z,101
2023-01-19T01:13:32.736Z,103
2023-01-19T01:16:32.471Z,112
2023-01-19T01:19:32.445Z,83
2023-01-19T01:21:32.451Z,82
2023-01-19T01:24:32.486Z,100
2023-01-19T01:27:32.472Z,88
2023-01-19T01:30:32.474Z,109
2023-01-19T01:33:40.313Z,92
2023-01-19T01:36:32.448Z,113
2023-01-19T01:39:32.459Z,101
2023-01-19T01:42:32.441Z,104
2023-01-19T01:44:32.432Z,122
2023-01-19T01:46:32.445Z,131
2023-01-19T01:49:32.717Z,143
2023-01-19T01:52:32.443Z,129
2023-01-19T01:54:32.432Z,123
2023-01-19T01:57:32.463Z,108
2023-01-19T02:00:32.442Z,93
2023-01-19T02:03:32.504Z,97
2023-01-19T02:06:32.487Z,114
2023-01-19T02:09:32.431Z,103
2023-01-19T02:11:32.473Z,128
2023-01-19T02:13:32.419Z,95
2023-01-19T02:15:32.465Z,118
2023-01-19T02:17:32.446Z,109
2023-01-19T02:20:32.443Z,119
2023-01-19T02:22:32.568Z,124
2023-01-19T02:25:32.431Z,104
2023-01-19T02:27:32.502Z,90
2023-01-19T02:30:32.514Z,157
2023-01-19T02:33:32.449Z,153
2023-01-19T02:35:32.652Z,127
2023-01-19T02:38:32.462Z,141
2023-01-19T02:41:32.445Z,106
2023-01-19T02:44:32.439Z,99
2023-01-19T02:46:32.513Z,111
2023-01-19T02:49:32.476Z,112
2023-01-19T02:52:32.456Z,103
2023-01-19T02:54:32.461Z,139
2023-01-19T02:57:32.527Z,100
2023-01-19T03:00:32.452Z,112
2023-01-19T03:02:32.497Z,66
2023-01-19T03:05:32.418Z,84
2023-01-19T03:07:32.461Z,68
2023-01-19T03:10:32.439Z,89
2023-01-19T03:12:32.475Z,75
2023-01-19T03:16:32.479Z,81
2023-01-19T03:18:32.451Z,68
2023-01-19T03:21:32.580Z,80
2023-01-19T03:24:32.476Z,95
2023-01-19T03:27:32.433Z,66
2023-01-19T03:30:32.457Z,74
2023-01-19T03:33:32.422Z,73
2023-01-19T03:36:32.445Z,80
2023-01-19T03:38:32.432Z,81
2023-01-19T03:40:32.565Z,81
2023-01-19T03:43:32.427Z,84
2023-01-19T03:45:32.495Z,129
2023-01-19T03:48:32.499Z,106
2023-01-19T03:51:32.428Z,92
2023-01-19T03:53:32.478Z,104
2023-01-19T03:55:32.451Z,107
2023-01-19T03:58:39.072Z,92
2023-01-19T04:01:32.516Z,74
2023-01-19T04:04:32.494Z,104
2023-01-19T04:06:39.039Z,99
2023-01-19T04:09:32.538Z,112
2023-01-19T04:12:32.490Z,87
2023-01-19T04:15:32.434Z,81
2023-01-19T04:17:32.436Z,113
2023-01-19T04:19:32.459Z,84
2023-01-19T04:22:32.454Z,105
2023-01-19T04:24:32.456Z,94
2023-01-19T04:27:32.429Z,101
2023-01-19T04:30:32.455Z,93
2023-01-19T04:32:32.475Z,105
2023-01-19T04:35:32.455Z,108
2023-01-19T04:38:32.445Z,83
2023-01-19T04:41:32.482Z,83
2023-01-19T04:44:32.441Z,97
2023-01-19T04:46:39.052Z,110
2023-01-19T04:49:32.478Z,109
2023-01-19T04:51:39.027Z,117
2023-01-19T04:54:32.514Z,86
2023-01-19T04:57:32.448Z,97
2023-01-19T04:59:32.443Z,85
2023-01-19T05:01:32.548Z,102
2023-01-19T05:03:32.447Z,118
2023-01-19T05:06:32.530Z,93
2023-01-19T05:09:32.430Z,96
2023-01-19T05:11:39.017Z,98
2023-01-19T05:15:39.007Z,97
2023-01-19T05:18:32.448Z,116
2023-01-19T05:21:32.452Z,101
2023-01-19T05:23:32.481Z,105
2023-01-19T05:25:39.012Z,90
2023-01-19T05:27:45.693Z,147
2023-01-19T05:30:32.431Z,121
2023-01-19T05:32:32.464Z,105
2023-01-19T05:36:32.672Z,115
2023-01-19T05:38:35.907Z,100
2023-01-19T05:40:32.495Z,103
2023-01-19T05:43:39.059Z,100
2023-01-19T05:46:32.558Z,102
2023-01-19T05:49:39.036Z,117
2023-01-19T05:52:32.470Z,106
2023-01-19T05:54:32.521Z,98
2023-01-19T05:57:32.517Z,132
2023-01-19T06:00:39.022Z,121
2023-01-19T06:04:32.451Z,123
2023-01-19T06:08:32.436Z,123
2023-01-19T06:10:39.034Z,120
2023-01-19T06:13:32.461Z,162
2023-01-19T06:16:39.128Z,127
2023-01-19T06:19:32.458Z,125
2023-01-19T06:21:32.533Z,112
2023-01-19T06:24:32.425Z,132
2023-01-19T06:27:32.440Z,106
2023-01-19T06:29:32.470Z,104
2023-01-19T06:32:32.429Z,100
2023-01-19T06:35:32.442Z,145
2023-01-19T06:38:32.463Z,137
2023-01-19T06:40:32.442Z,136
2023-01-19T06:42:32.442Z,124
2023-01-19T06:45:46.082Z,144
2023-01-19T06:48:32.451Z,130
2023-01-19T06:50:38.999Z,131
2023-01-19T06:53:39.034Z,163
2023-01-19T06:56:32.495Z,134
2023-01-19T06:58:39.024Z,136
2023-01-19T07:00:39.009Z,132
2023-01-19T07:03:32.430Z,130
2023-01-19T07:06:32.510Z,128
2023-01-19T07:08:32.461Z,150
2023-01-19T07:12:32.494Z,135
2023-01-19T07:15:32.531Z,116
2023-01-19T07:17:39.004Z,112
2023-01-19T07:20:32.506Z,129
2023-01-19T07:23:32.460Z,137
2023-01-19T07:26:32.459Z,121
2023-01-19T07:29:32.448Z,136
2023-01-19T07:32:32.445Z,180
2023-01-19T07:34:39.069Z,165
2023-01-19T07:37:32.426Z,176
2023-01-19T07:40:32.415Z,225
2023-01-19T07:43:32.451Z,238
2023-01-19T07:45:32.424Z,246
2023-01-19T07:47:32.475Z,226
2023-01-19T07:50:32.439Z,170
2023-01-19T07:53:32.450Z,182
2023-01-19T07:55:32.428Z,194
2023-01-19T07:57:32.407Z,182
2023-01-19T07:59:32.458Z,156
2023-01-19T08:02:32.422Z,191
2023-01-19T08:04:32.535Z,174
2023-01-19T08:07:32.415Z,145
2023-01-19T08:09:32.454Z,144
2023-01-19T08:11:32.542Z,148
2023-01-19T08:14:32.475Z,157
2023-01-19T08:17:32.428Z,215
2023-01-19T08:20:32.427Z,175
2023-01-19T08:23:32.415Z,163
2023-01-19T08:26:32.422Z,167
2023-01-19T08:29:32.421Z,150
2023-01-19T08:32:32.440Z,167
2023-01-19T08:34:39.028Z,171
2023-01-19T08:37:34.195Z,159
2023-01-19T08:39:32.410Z,161
2023-01-19T08:41:32.449Z,189
2023-01-19T08:43:39.000Z,190
2023-01-19T08:46:32.487Z,170
2023-01-19T08:48:32.467Z,175
2023-01-19T08:50:32.433Z,167
2023-01-19T08:53:32.446Z,166
2023-01-19T08:56:32.450Z,166
2023-01-19T08:59:32.465Z,158
2023-01-19T09:02:32.546Z,174
2023-01-19T09:04:39.058Z,89
2023-01-19T09:07:33.868Z,166
2023-01-19T09:09:32.481Z,159
2023-01-19T09:12:32.406Z,194
2023-01-19T09:14:32.442Z,136
2023-01-19T09:16:32.462Z,127
2023-01-19T09:19:33.376Z,148
2023-01-19T09:22:32.416Z,163
2023-01-19T09:25:32.469Z,156
2023-01-19T09:27:32.429Z,153
2023-01-19T09:30:32.596Z,147
2023-01-19T09:33:32.464Z,144
2023-01-19T09:35:32.442Z,157
2023-01-19T09:37:32.500Z,151
2023-01-19T09:40:32.425Z,138
2023-01-19T09:42:32.527Z,152
2023-01-19T09:45:32.450Z,134
2023-01-19T09:47:32.441Z,146
2023-01-19T09:50:32.447Z,173
2023-01-19T09:52:32.440Z,136
2023-01-19T09:55:32.453Z,155
2023-01-19T09:58:32.458Z,171
2023-01-19T10:01:34.703Z,121
2023-01-19T10:04:32.425Z,128
2023-01-19T10:06:32.469Z,133
2023-01-19T10:09:32.446Z,113
2023-01-19T10:11:41.921Z,164
2023-01-19T10:14:32.450Z,172
2023-01-19T10:16:32.482Z,138
2023-01-19T10:19:32.452Z,147
2023-01-19T10:22:32.453Z,130
2023-01-19T10:24:32.424Z,122
2023-01-19T10:26:39.017Z,128
2023-01-19T10:29:32.463Z,110
2023-01-19T10:33:32.494Z,139
2023-01-19T10:35:32.440Z,91
2023-01-19T10:38:32.519Z,93
2023-01-19T10:41:32.478Z,125
2023-01-19T10:43:32.472Z,133
2023-01-19T10:45:32.514Z,71
2023-01-19T10:48:32.466Z,57
2023-01-19T10:50:32.462Z,57
2023-01-19T10:52:32.456Z,91
2023-01-19T10:54:38.973Z,67
2023-01-19T10:57:32.417Z,57
2023-01-19T11:01:32.607Z,39
2023-01-19T11:04:32.628Z,59
2023-01-19T11:07:32.425Z,60
2023-01-19T11:10:32.424Z,47
2023-01-19T11:12:32.415Z,73
2023-01-19T11:15:32.448Z,61
2023-01-19T11:17:32.425Z,33
2023-01-19T11:20:32.497Z,46
2023-01-19T11:23:32.420Z,54
2023-01-19T11:25:32.485Z,60
2023-01-19T11:28:32.421Z,80
2023-01-19T11:30:32.470Z,37
2023-01-19T11:32:32.453Z,46
2023-01-19T11:35:32.445Z,27
2023-01-19T11:38:32.448Z,36
2023-01-19T11:41:32.431Z,38
2023-01-19T11:43:48.130Z,29
2023-01-19T11:45:32.455Z,34
2023-01-19T11:48:32.427Z,41
2023-01-19T11:50:32.417Z,37
2023-01-19T11:53:32.462Z,52
2023-01-19T11:55:32.437Z,34
2023-01-19T11:57:32.436Z,44
2023-01-19T11:59:38.974Z,38
2023-01-19T12:02:32.498Z,45
2023-01-19T12:04:32.431Z,32
2023-01-19T12:07:32.475Z,52
2023-01-19T12:09:32.443Z,52
2023-01-19T12:12:32.431Z,47
2023-01-19T12:14:32.452Z,42
2023-01-19T12:16:32.477Z,48
2023-01-19T12:19:32.455Z,39
2023-01-19T12:22:32.434Z,50
2023-01-19T12:24:32.532Z,46
2023-01-19T12:26:32.457Z,33
2023-01-19T12:29:32.402Z,40
2023-01-19T12:31:32.560Z,54
2023-01-19T12:33:32.464Z,49
2023-01-19T12:35:32.500Z,52
2023-01-19T12:38:32.456Z,45
2023-01-19T12:40:32.466Z,38
2023-01-19T12:42:39.023Z,45
2023-01-19T12:45:32.441Z,52
2023-01-19T12:48:32.413Z,59
2023-01-19T12:51:32.446Z,47
2023-01-19T12:54:32.477Z,33
2023-01-19T12:57:32.455Z,56
2023-01-19T13:00:32.454Z,53
2023-01-19T13:03:32.415Z,37
2023-01-19T13:06:32.447Z,44
2023-01-19T13:08:39.013Z,47
2023-01-19T13:11:34.526Z,34
2023-01-19T13:13:32.450Z,39
2023-01-19T13:16:32.425Z,51
2023-01-19T13:19:32.440Z,47
2023-01-19T13:23:32.447Z,46
2023-01-19T13:25:32.449Z,39
2023-01-19T13:27:32.468Z,62
2023-01-19T13:32:33.634Z,78
2023-01-19T13:35:32.432Z,53
2023-01-19T13:38:32.482Z,44
2023-01-19T13:40:32.428Z,48
2023-01-19T13:42:32.515Z,43
2023-01-19T13:45:32.441Z,42
2023-01-19T13:48:32.464Z,33
2023-01-19T13:51:32.464Z,97
2023-01-19T13:53:32.517Z,44
2023-01-19T13:56:32.421Z,26
2023-01-19T13:59:32.438Z,47
2023-01-19T14:01:32.543Z,74
2023-01-19T14:04:32.431Z,39
2023-01-19T14:07:32.497Z,72
2023-01-19T14:10:32.412Z,23
2023-01-19T14:13:32.455Z,77
2023-01-19T14:16:32.493Z,34
2023-01-19T14:18:32.428Z,62
2023-01-19T14:20:32.546Z,31
2023-01-19T14:23:32.431Z,76
2023-01-19T14:26:32.426Z,34
2023-01-19T14:28:32.458Z,42
2023-01-19T14:30:39.149Z,44
2023-01-19T14:33:32.454Z,41
2023-01-19T14:36:32.437Z,41
2023-01-19T14:39:32.444Z,32
2023-01-19T14:41:32.446Z,29
2023-01-19T14:44:32.443Z,36
2023-01-19T14:46:39.035Z,34
2023-01-19T14:49:32.434Z,42
2023-01-19T14:51:32.567Z,58
2023-01-19T14:54:32.444Z,43
2023-01-19T14:56:32.444Z,48
2023-01-19T14:59:32.448Z,46
2023-01-19T15:02:32.446Z,57
2023-01-19T15:06:32.477Z,44
2023-01-19T15:09:32.412Z,39
2023-01-19T15:11:32.458Z,30
2023-01-19T15:14:32.430Z,41
2023-01-19T15:17:32.451Z,29
2023-01-19T15:19:32.433Z,78
2023-01-19T15:22:32.469Z,39
2023-01-19T15:24:32.401Z,24
2023-01-19T15:26:32.460Z,55
2023-01-19T15:29:32.461Z,36
2023-01-19T15:33:39.103Z,48
2023-01-19T15:36:32.471Z,77
2023-01-19T15:38:32.543Z,58
2023-01-19T15:41:32.413Z,56
2023-01-19T15:43:39.069Z,36
2023-01-19T15:46:32.467Z,35
2023-01-19T15:49:32.436Z,56
2023-01-19T15:51:32.443Z,54
2023-01-19T15:54:39.030Z,57
2023-01-19T15:57:32.421Z,50
2023-01-19T15:59:32.430Z,52
2023-01-19T16:01:32.967Z,37
2023-01-19T16:04:32.474Z,47
2023-01-19T16:06:32.486Z,56
2023-01-19T16:10:32.434Z,57
2023-01-19T16:12:34.198Z,43
2023-01-19T16:14:37.544Z,32
2023-01-19T16:16:40.956Z,52
2023-01-19T16:18:44.375Z,39
2023-01-19T16:20:47.742Z,53
2023-01-19T16:22:51.127Z,77
2023-01-19T16:25:56.211Z,54
2023-01-19T16:28:09.902Z,69
2023-01-19T16:31:04.776Z,58
2023-01-19T16:33:08.066Z,55
2023-01-19T16:35:11.470Z,44
2023-01-19T16:37:14.932Z,54
2023-01-19T16:39:18.235Z,60
2023-01-19T16:41:21.672Z,53
2023-01-19T16:43:26.888Z,41
2023-01-19T16:46:30.206Z,45
2023-01-19T16:49:15.799Z,47
2023-01-19T16:51:28.540Z,78
2023-01-19T16:53:32.509Z,48
2023-01-19T16:56:32.615Z,39
2023-01-19T16:59:32.558Z,58
2023-01-19T17:02:32.490Z,42
2023-01-19T17:05:32.564Z,35
2023-01-19T17:08:42.758Z,66
2023-01-19T17:12:32.512Z,57
2023-01-19T17:15:32.487Z,58
2023-01-19T17:17:32.516Z,58
2023-01-19T17:21:32.542Z,72
2023-01-19T17:25:32.488Z,71
2023-01-19T17:28:32.487Z,86
2023-01-19T17:30:32.541Z,61
2023-01-19T17:32:33.887Z,86
2023-01-19T17:35:32.478Z,68
2023-01-19T17:38:32.520Z,70
2023-01-19T17:40:32.573Z,85
2023-01-19T17:43:42.755Z,60
2023-01-19T17:46:42.868Z,80
2023-01-19T17:49:32.477Z,99
2023-01-19T17:51:32.509Z,69
2023-01-19T17:54:32.487Z,74
2023-01-19T17:57:42.810Z,115
2023-01-19T18:00:34.183Z,75
2023-01-19T18:03:42.751Z,79
2023-01-19T18:07:32.477Z,84
2023-01-19T18:09:32.512Z,72
2023-01-19T18:12:32.522Z,76
2023-01-19T18:15:32.513Z,72
2023-01-19T18:18:32.492Z,83
2023-01-19T18:21:32.532Z,111
2023-01-19T18:24:42.779Z,116
2023-01-19T18:26:42.787Z,73
2023-01-19T18:29:32.535Z,64
2023-01-19T18:31:32.664Z,65
2023-01-19T18:34:32.466Z,92
2023-01-19T18:36:32.490Z,77
2023-01-19T18:38:32.485Z,85
2023-01-19T18:41:42.783Z,90
2023-01-19T18:44:34.171Z,78
2023-01-19T18:47:32.499Z,93
2023-01-19T18:50:32.469Z,102
2023-01-19T18:52:32.502Z,90
2023-01-19T18:54:32.488Z,75
2023-01-19T18:57:32.462Z,76
2023-01-19T19:00:32.507Z,121
2023-01-19T19:03:32.480Z,83
2023-01-19T19:06:32.547Z,91
2023-01-19T19:09:32.490Z,126
2023-01-19T19:12:32.524Z,95
2023-01-19T19:15:32.480Z,100
2023-01-19T19:17:32.528Z,154
2023-01-19T19:21:32.482Z,85
2023-01-19T19:23:32.486Z,119
2023-01-19T19:26:32.479Z,90
2023-01-19T19:29:32.500Z,87
2023-01-19T19:31:32.513Z,98
2023-01-19T19:33:32.525Z,102
2023-01-19T19:36:42.762Z,158
2023-01-19T19:39:32.518Z,111
2023-01-19T19:41:33.900Z,90
2023-01-19T19:44:32.477Z,110
2023-01-19T19:46:35.928Z,92
2023-01-19T19:49:32.525Z,109
2023-01-19T19:52:32.492Z,87
2023-01-19T19:55:32.509Z,104
2023-01-19T19:57:32.531Z,92
2023-01-19T20:00:32.603Z,89
2023-01-19T20:04:32.500Z,92
2023-01-19T20:08:32.515Z,84
2023-01-19T20:12:32.480Z,87
2023-01-19T20:14:32.501Z,97
2023-01-19T20:16:32.483Z,83
2023-01-19T20:19:32.684Z,93
2023-01-19T20:22:32.470Z,84
2023-01-19T20:24:32.535Z,105
2023-01-19T20:27:32.498Z,107
2023-01-19T20:30:32.548Z,82
2023-01-19T20:33:42.799Z,156
2023-01-19T20:36:42.769Z,78
2023-01-19T20:39:32.466Z,95
2023-01-19T20:41:32.472Z,86
2023-01-19T20:43:42.777Z,99
2023-01-19T20:46:32.462Z,161
2023-01-19T20:49:32.464Z,127
2023-01-19T20:51:32.489Z,130
2023-01-19T20:53:42.768Z,117
2023-01-19T20:56:32.534Z,124
2023-01-19T20:59:32.587Z,139
2023-01-19T21:02:32.552Z,109
2023-01-19T21:05:42.758Z,99
2023-01-19T21:08:32.489Z,107
2023-01-19T21:10:32.482Z,100
2023-01-19T21:12:32.522Z,117
2023-01-19T21:15:33.545Z,112
2023-01-19T21:18:32.496Z,102
2023-01-19T21:20:32.502Z,105
2023-01-19T21:24:32.530Z,110
2023-01-19T21:27:32.453Z,93
2023-01-19T21:30:32.526Z,119
2023-01-19T21:33:32.494Z,109
2023-01-19T21:36:32.489Z,132
2023-01-19T21:38:42.741Z,122
2023-01-19T21:41:32.490Z,135
2023-01-19T21:44:32.465Z,128
2023-01-19T21:47:32.488Z,140
2023-01-19T21:49:32.474Z,130
2023-01-19T21:52:32.491Z,134
2023-01-19T21:55:32.493Z,95
2023-01-19T21:57:42.792Z,132
2023-01-19T22:00:32.492Z,118
2023-01-19T22:02:38.775Z,96
2023-01-19T22:04:42.766Z,142
2023-01-19T22:06:42.779Z,139
2023-01-19T22:09:32.456Z,138
2023-01-19T22:11:32.467Z,115
2023-01-19T22:15:32.482Z,98
2023-01-19T22:19:32.538Z,131
2023-01-19T22:23:32.473Z,103
2023-01-19T22:25:32.483Z,84
2023-01-19T22:27:32.580Z,102
2023-01-19T22:30:32.519Z,115
2023-01-19T22:32:32.470Z,99
2023-01-19T22:35:32.477Z,149
2023-01-19T22:38:32.468Z,106
2023-01-19T22:40:32.462Z,95
2023-01-19T22:43:32.490Z,100
2023-01-19T22:46:32.560Z,94
2023-01-19T22:48:32.478Z,121
2023-01-19T22:51:32.484Z,107
2023-01-19T22:54:32.468Z,88
2023-01-19T22:57:32.455Z,88
2023-01-19T22:59:32.504Z,104
2023-01-19T23:02:32.466Z,86
2023-01-19T23:04:32.505Z,79
2023-01-19T23:07:32.474Z,78
2023-01-19T23:09:42.754Z,98
2023-01-19T23:12:32.490Z,67
2023-01-19T23:14:32.483Z,126
2023-01-19T23:16:32.479Z,79
2023-01-19T23:18:32.524Z,78
2023-01-19T23:21:32.467Z,98
2023-01-19T23:23:32.480Z,82
2023-01-19T23:25:42.752Z,94
2023-01-19T23:28:34.175Z,96
2023-01-19T23:31:32.490Z,90
2023-01-19T23:34:32.461Z,100
2023-01-19T23:37:32.482Z,81
2023-01-19T23:40:42.739Z,115
2023-01-19T23:43:32.453Z,71
2023-01-19T23:45:34.182Z,84
2023-01-19T23:48:32.474Z,62
2023-01-19T23:52:32.466Z,52
2023-01-19T23:54:32.461Z,64
2023-01-19T23:57:32.569Z,55
